sensor_id;sensor_type;location;lat;lon;timestamp;pressure;altitude;pressure_sealevel;temperature;humidity
14242;BME280;7205;50.864;12.766;2023-01-26T00:00:49;98239.69;;;3.61;78.06
14242;BME280;7205;50.864;12.766;2023-01-26T00:03:17;98238.84;;;3.61;78.44
14242;BME280;7205;50.864;12.766;2023-01-26T00:05:44;98233.63;;;3.61;78.15
14242;BME280;7205;50.864;12.766;2023-01-26T00:08:11;98231.13;;;3.59;78.46
14242;BME280;7205;50.864;12.766;2023-01-26T00:10:40;98239.69;;;3.61;78.29
14242;BME280;7205;50.864;12.766;2023-01-26T00:13:15;98229.44;;;3.58;78.15
14242;BME280;7205;50.864;12.766;2023-01-26T00:15:43;98216.31;;;3.60;78.51
14242;BME280;7205;50.864;12.766;2023-01-26T00:18:10;98222.34;;;3.60;78.32
14242;BME280;7205;50.864;12.766;2023-01-26T00:20:37;98223.19;;;3.61;78.39
14242;BME280;7205;50.864;12.766;2023-01-26T00:23:03;98218.91;;;3.60;78.51
14242;BME280;7205;50.864;12.766;2023-01-26T00:25:30;98212.00;;;3.59;78.24
14242;BME280;7205;50.864;12.766;2023-01-26T00:27:58;98218.06;;;3.59;78.53
14242;BME280;7205;50.864;12.766;2023-01-26T00:30:25;98212.13;;;3.57;78.18
14242;BME280;7205;50.864;12.766;2023-01-26T00:32:52;98211.28;;;3.46;77.23
14242;BME280;7205;50.864;12.766;2023-01-26T00:35:19;98205.47;;;3.31;76.94
14242;BME280;7205;50.864;12.766;2023-01-26T00:37:46;98204.50;;;3.21;76.74
14242;BME280;7205;50.864;12.766;2023-01-26T00:40:13;98206.25;;;3.10;76.10
14242;BME280;7205;50.864;12.766;2023-01-26T00:42:42;98207.91;;;3.00;76.14
14242;BME280;7205;50.864;12.766;2023-01-26T00:45:10;98202.63;;;2.89;75.35
14242;BME280;7205;50.864;12.766;2023-01-26T00:47:37;98202.50;;;2.79;75.78
14242;BME280;7205;50.864;12.766;2023-01-26T00:50:06;98199.63;;;2.71;75.78
14242;BME280;7205;50.864;12.766;2023-01-26T00:52:33;98200.16;;;2.64;75.79
14242;BME280;7205;50.864;12.766;2023-01-26T00:54:59;98198.84;;;2.58;75.61
14242;BME280;7205;50.864;12.766;2023-01-26T00:57:26;98196.69;;;2.52;75.76
14242;BME280;7205;50.864;12.766;2023-01-26T00:59:53;98198.78;;;2.47;75.92
14242;BME280;7205;50.864;12.766;2023-01-26T01:02:25;98203.50;;;2.42;76.58
14242;BME280;7205;50.864;12.766;2023-01-26T01:04:51;98203.75;;;2.39;75.69
14242;BME280;7205;50.864;12.766;2023-01-26T01:07:18;98204.28;;;2.31;75.71
14242;BME280;7205;50.864;12.766;2023-01-26T01:09:45;98208.06;;;2.27;76.37
14242;BME280;7205;50.864;12.766;2023-01-26T01:12:12;98210.78;;;2.26;76.11
14242;BME280;7205;50.864;12.766;2023-01-26T01:14:39;98204.84;;;2.24;76.54
14242;BME280;7205;50.864;12.766;2023-01-26T01:17:05;98204.94;;;2.22;76.66
14242;BME280;7205;50.864;12.766;2023-01-26T01:19:35;98209.09;;;2.25;76.28
14242;BME280;7205;50.864;12.766;2023-01-26T01:22:02;98207.44;;;2.24;76.78
14242;BME280;7205;50.864;12.766;2023-01-26T01:24:30;98208.97;;;2.26;77.05
14242;BME280;7205;50.864;12.766;2023-01-26T01:26:58;98211.47;;;2.28;76.32
14242;BME280;7205;50.864;12.766;2023-01-26T01:29:25;98210.66;;;2.27;76.88
14242;BME280;7205;50.864;12.766;2023-01-26T01:31:52;98207.94;;;2.29;77.38
14242;BME280;7205;50.864;12.766;2023-01-26T01:34:19;98202.41;;;2.33;77.67
14242;BME280;7205;50.864;12.766;2023-01-26T01:36:47;98205.63;;;2.37;77.42
14242;BME280;7205;50.864;12.766;2023-01-26T01:39:14;98200.19;;;2.40;77.02
14242;BME280;7205;50.864;12.766;2023-01-26T01:41:40;98200.66;;;2.45;77.32
14242;BME280;7205;50.864;12.766;2023-01-26T01:44:16;98199.41;;;2.50;77.70
14242;BME280;7205;50.864;12.766;2023-01-26T01:46:47;98197.06;;;2.58;77.89
14242;BME280;7205;50.864;12.766;2023-01-26T01:49:17;98189.97;;;2.61;77.71
14242;BME280;7205;50.864;12.766;2023-01-26T01:51:49;98178.09;;;2.56;77.46
14242;BME280;7205;50.864;12.766;2023-01-26T01:54:23;98192.19;;;2.54;77.69
14242;BME280;7205;50.864;12.766;2023-01-26T01:56:57;98178.44;;;2.52;77.54
14242;BME280;7205;50.864;12.766;2023-01-26T01:59:26;98179.28;;;2.52;77.19
14242;BME280;7205;50.864;12.766;2023-01-26T02:01:54;98181.06;;;2.52;77.63
14242;BME280;7205;50.864;12.766;2023-01-26T02:04:23;98167.28;;;2.50;77.07
14242;BME280;7205;50.864;12.766;2023-01-26T02:06:52;98166.38;;;2.51;77.03
14242;BME280;7205;50.864;12.766;2023-01-26T02:09:25;98166.25;;;2.52;76.92
14242;BME280;7205;50.864;12.766;2023-01-26T02:12:12;98154.16;;;2.51;77.17
14242;BME280;7205;50.864;12.766;2023-01-26T02:14:40;98154.16;;;2.51;77.88
14242;BME280;7205;50.864;12.766;2023-01-26T02:17:08;98154.16;;;2.51;77.33
14242;BME280;7205;50.864;12.766;2023-01-26T02:19:41;98146.69;;;2.47;77.25
14242;BME280;7205;50.864;12.766;2023-01-26T02:22:17;98144.19;;;2.45;77.18
14242;BME280;7205;50.864;12.766;2023-01-26T02:24:54;98139.09;;;2.44;76.87
14242;BME280;7205;50.864;12.766;2023-01-26T02:27:23;98140.75;;;2.45;77.95
14242;BME280;7205;50.864;12.766;2023-01-26T02:29:52;98136.38;;;2.45;77.10
14242;BME280;7205;50.864;12.766;2023-01-26T02:32:19;98130.31;;;2.45;76.86
14242;BME280;7205;50.864;12.766;2023-01-26T02:34:46;98118.47;;;2.41;77.54
14242;BME280;7205;50.864;12.766;2023-01-26T02:37:13;98117.53;;;2.42;76.97
14242;BME280;7205;50.864;12.766;2023-01-26T02:39:46;98112.53;;;2.39;76.61
14242;BME280;7205;50.864;12.766;2023-01-26T02:42:17;98118.00;;;2.36;76.79
14242;BME280;7205;50.864;12.766;2023-01-26T02:45:03;98108.50;;;2.35;77.04
14242;BME280;7205;50.864;12.766;2023-01-26T02:47:30;98104.34;;;2.32;77.22
14242;BME280;7205;50.864;12.766;2023-01-26T02:49:57;98101.03;;;2.30;76.41
14242;BME280;7205;50.864;12.766;2023-01-26T02:52:28;98093.75;;;2.23;76.51
14242;BME280;7205;50.864;12.766;2023-01-26T02:55:04;98089.72;;;2.19;76.57
14242;BME280;7205;50.864;12.766;2023-01-26T02:57:52;98094.34;;;2.15;76.48
14242;BME280;7205;50.864;12.766;2023-01-26T03:00:23;98086.94;;;2.09;76.46
14242;BME280;7205;50.864;12.766;2023-01-26T03:02:53;98081.34;;;2.03;76.57
14242;BME280;7205;50.864;12.766;2023-01-26T03:05:23;98085.75;;;2.02;77.10
14242;BME280;7205;50.864;12.766;2023-01-26T03:07:50;98082.31;;;2.02;76.38
14242;BME280;7205;50.864;12.766;2023-01-26T03:10:20;98081.34;;;2.03;77.52
14242;BME280;7205;50.864;12.766;2023-01-26T03:12:50;98089.66;;;2.08;77.03
14242;BME280;7205;50.864;12.766;2023-01-26T03:15:18;98082.69;;;2.08;76.98
14242;BME280;7205;50.864;12.766;2023-01-26T03:18:05;98081.84;;;2.08;76.90
14242;BME280;7205;50.864;12.766;2023-01-26T03:20:50;98080.22;;;2.07;77.20
14242;BME280;7205;50.864;12.766;2023-01-26T03:23:34;98078.66;;;2.04;77.29
14242;BME280;7205;50.864;12.766;2023-01-26T03:26:21;98073.34;;;2.06;77.03
14242;BME280;7205;50.864;12.766;2023-01-26T03:29:06;98075.13;;;2.05;77.46
14242;BME280;7205;50.864;12.766;2023-01-26T03:31:33;98073.25;;;2.07;77.31
14242;BME280;7205;50.864;12.766;2023-01-26T03:34:01;98073.25;;;2.07;76.83
14242;BME280;7205;50.864;12.766;2023-01-26T03:36:30;98073.13;;;2.09;77.31
14242;BME280;7205;50.864;12.766;2023-01-26T03:38:58;98079.63;;;2.14;77.68
14242;BME280;7205;50.864;12.766;2023-01-26T03:41:25;98083.31;;;2.12;77.26
14242;BME280;7205;50.864;12.766;2023-01-26T03:44:09;98074.78;;;2.10;76.85
14242;BME280;7205;50.864;12.766;2023-01-26T03:46:57;98073.94;;;2.09;76.62
14242;BME280;7205;50.864;12.766;2023-01-26T03:49:46;98078.31;;;2.09;77.23
14242;BME280;7205;50.864;12.766;2023-01-26T03:52:31;98069.91;;;2.05;77.36
14242;BME280;7205;50.864;12.766;2023-01-26T03:55:19;98070.63;;;2.07;77.49
14242;BME280;7205;50.864;12.766;2023-01-26T03:58:03;98064.59;;;2.07;77.10
14242;BME280;7205;50.864;12.766;2023-01-26T04:00:34;98066.22;;;2.08;77.82
14242;BME280;7205;50.864;12.766;2023-01-26T04:03:04;98063.75;;;2.06;76.97
14242;BME280;7205;50.864;12.766;2023-01-26T04:05:51;98062.22;;;2.04;77.62
14242;BME280;7205;50.864;12.766;2023-01-26T04:08:35;98057.81;;;2.04;76.83
14242;BME280;7205;50.864;12.766;2023-01-26T04:11:03;98061.25;;;2.05;77.33
14242;BME280;7205;50.864;12.766;2023-01-26T04:13:30;98061.25;;;2.05;77.05
14242;BME280;7205;50.864;12.766;2023-01-26T04:16:23;98061.25;;;2.05;77.10
14242;BME280;7205;50.864;12.766;2023-01-26T04:19:07;98053.31;;;2.06;77.68
14242;BME280;7205;50.864;12.766;2023-01-26T04:21:53;98053.44;;;2.05;77.21
14242;BME280;7205;50.864;12.766;2023-01-26T04:24:21;98056.16;;;2.03;77.30
14242;BME280;7205;50.864;12.766;2023-01-26T04:26:53;98057.00;;;2.04;77.65
14242;BME280;7205;50.864;12.766;2023-01-26T04:29:24;98055.31;;;2.03;77.48
14242;BME280;7205;50.864;12.766;2023-01-26T04:31:51;98055.31;;;2.03;76.92
14242;BME280;7205;50.864;12.766;2023-01-26T04:34:20;98053.69;;;2.02;77.62
14242;BME280;7205;50.864;12.766;2023-01-26T04:36:47;98048.81;;;1.97;76.94
14242;BME280;7205;50.864;12.766;2023-01-26T04:39:16;98041.53;;;1.90;77.30
14242;BME280;7205;50.864;12.766;2023-01-26T04:41:47;98047.09;;;1.85;76.59
14242;BME280;7205;50.864;12.766;2023-01-26T04:44:15;98048.13;;;1.83;77.35
14242;BME280;7205;50.864;12.766;2023-01-26T04:46:42;98049.94;;;1.82;76.89
14242;BME280;7205;50.864;12.766;2023-01-26T04:49:12;98046.00;;;1.77;76.94
14242;BME280;7205;50.864;12.766;2023-01-26T04:51:39;98048.69;;;1.75;77.14
14242;BME280;7205;50.864;12.766;2023-01-26T04:54:07;98039.31;;;1.73;77.26
14242;BME280;7205;50.864;12.766;2023-01-26T04:56:38;98046.09;;;1.75;77.06
14242;BME280;7205;50.864;12.766;2023-01-26T04:59:06;98040.91;;;1.75;77.29
14242;BME280;7205;50.864;12.766;2023-01-26T05:01:35;98046.72;;;1.79;78.29
14242;BME280;7205;50.864;12.766;2023-01-26T05:04:06;98046.72;;;1.79;77.66
14242;BME280;7205;50.864;12.766;2023-01-26T05:06:34;98051.81;;;1.80;77.91
14242;BME280;7205;50.864;12.766;2023-01-26T05:09:02;98049.31;;;1.79;78.09
14242;BME280;7205;50.864;12.766;2023-01-26T05:11:31;98058.78;;;1.80;78.31
14242;BME280;7205;50.864;12.766;2023-01-26T05:14:22;98055.44;;;1.78;77.91
14242;BME280;7205;50.864;12.766;2023-01-26T05:16:58;98054.53;;;1.79;78.34
14242;BME280;7205;50.864;12.766;2023-01-26T05:19:46;98060.44;;;1.81;78.86
14242;BME280;7205;50.864;12.766;2023-01-26T05:22:16;98059.63;;;1.80;78.64
14242;BME280;7205;50.864;12.766;2023-01-26T05:25:03;98059.50;;;1.82;78.72
14242;BME280;7205;50.864;12.766;2023-01-26T05:27:40;98059.38;;;1.83;79.24
14242;BME280;7205;50.864;12.766;2023-01-26T05:30:10;98063.56;;;1.86;79.03
14242;BME280;7205;50.864;12.766;2023-01-26T05:32:37;98057.28;;;1.88;79.46
14242;BME280;7205;50.864;12.766;2023-01-26T05:35:06;98052.69;;;1.92;79.14
14242;BME280;7205;50.864;12.766;2023-01-26T05:37:33;98058.72;;;1.92;79.35
14242;BME280;7205;50.864;12.766;2023-01-26T05:40:00;98056.94;;;1.93;79.21
14242;BME280;7205;50.864;12.766;2023-01-26T05:42:28;98054.34;;;1.93;78.91
14242;BME280;7205;50.864;12.766;2023-01-26T05:44:58;98057.66;;;1.95;79.34
14242;BME280;7205;50.864;12.766;2023-01-26T05:47:28;98053.41;;;1.94;79.68
14242;BME280;7205;50.864;12.766;2023-01-26T05:49:56;98057.66;;;1.95;78.93
14242;BME280;7205;50.864;12.766;2023-01-26T05:52:27;98057.88;;;1.92;78.89
14242;BME280;7205;50.864;12.766;2023-01-26T05:54:53;98058.94;;;1.89;78.77
14242;BME280;7205;50.864;12.766;2023-01-26T05:57:21;98065.94;;;1.89;78.93
14242;BME280;7205;50.864;12.766;2023-01-26T05:59:53;98062.59;;;1.87;79.65
14242;BME280;7205;50.864;12.766;2023-01-26T06:02:20;98060.44;;;1.81;79.42
14242;BME280;7205;50.864;12.766;2023-01-26T06:04:49;98061.59;;;1.77;78.96
14242;BME280;7205;50.864;12.766;2023-01-26T06:07:16;98060.50;;;1.68;78.85
14242;BME280;7205;50.864;12.766;2023-01-26T06:09:48;98057.38;;;1.63;79.39
14242;BME280;7205;50.864;12.766;2023-01-26T06:12:36;98063.97;;;1.56;79.77
14242;BME280;7205;50.864;12.766;2023-01-26T06:15:16;98067.75;;;1.52;79.53
14242;BME280;7205;50.864;12.766;2023-01-26T06:17:45;98068.03;;;1.48;80.33
14242;BME280;7205;50.864;12.766;2023-01-26T06:20:15;98068.78;;;1.50;80.21
14242;BME280;7205;50.864;12.766;2023-01-26T06:22:51;98063.56;;;1.50;80.71
14242;BME280;7205;50.864;12.766;2023-01-26T06:25:19;98069.72;;;1.49;80.39
14242;BME280;7205;50.864;12.766;2023-01-26T06:27:45;98067.44;;;1.44;80.88
14242;BME280;7205;50.864;12.766;2023-01-26T06:30:20;98070.25;;;1.41;80.65
14242;BME280;7205;50.864;12.766;2023-01-26T06:32:47;98061.81;;;1.38;80.34
14242;BME280;7205;50.864;12.766;2023-01-26T06:35:17;98063.50;;;1.39;80.44
14242;BME280;7205;50.864;12.766;2023-01-26T06:37:47;98062.88;;;1.35;80.52
14242;BME280;7205;50.864;12.766;2023-01-26T06:40:14;98072.56;;;1.33;80.67
14242;BME280;7205;50.864;12.766;2023-01-26T06:42:46;98071.84;;;1.31;81.50
14242;BME280;7205;50.864;12.766;2023-01-26T06:45:13;98073.63;;;1.31;81.34
14242;BME280;7205;50.864;12.766;2023-01-26T06:47:43;98069.34;;;1.29;81.94
14242;BME280;7205;50.864;12.766;2023-01-26T06:50:11;98069.22;;;1.31;81.84
14242;BME280;7205;50.864;12.766;2023-01-26T06:52:40;98069.84;;;1.35;82.14
14242;BME280;7205;50.864;12.766;2023-01-26T06:55:31;98069.63;;;1.38;82.37
14242;BME280;7205;50.864;12.766;2023-01-26T06:58:19;98077.25;;;1.41;82.59
14242;BME280;7205;50.864;12.766;2023-01-26T07:01:05;98064.13;;;1.42;82.31
14242;BME280;7205;50.864;12.766;2023-01-26T07:03:32;98080.34;;;1.46;82.59
14242;BME280;7205;50.864;12.766;2023-01-26T07:05:59;98080.44;;;1.44;82.80
14242;BME280;7205;50.864;12.766;2023-01-26T07:08:27;98077.13;;;1.42;82.48
14242;BME280;7205;50.864;12.766;2023-01-26T07:10:54;98082.53;;;1.39;82.38
14242;BME280;7205;50.864;12.766;2023-01-26T07:13:21;98082.75;;;1.36;81.63
14242;BME280;7205;50.864;12.766;2023-01-26T07:15:48;98078.72;;;1.32;81.85
14242;BME280;7205;50.864;12.766;2023-01-26T07:18:14;98077.97;;;1.30;82.04
14242;BME280;7205;50.864;12.766;2023-01-26T07:20:41;98077.16;;;1.29;82.34
14242;BME280;7205;50.864;12.766;2023-01-26T07:23:08;98077.97;;;1.30;82.51
14242;BME280;7205;50.864;12.766;2023-01-26T07:25:36;98079.53;;;1.33;82.84
14242;BME280;7205;50.864;12.766;2023-01-26T07:28:03;98082.13;;;1.33;82.98
14242;BME280;7205;50.864;12.766;2023-01-26T07:30:34;98082.00;;;1.34;83.12
14242;BME280;7205;50.864;12.766;2023-01-26T07:33:01;98074.31;;;1.33;83.04
14242;BME280;7205;50.864;12.766;2023-01-26T07:35:28;98078.22;;;1.27;82.39
14242;BME280;7205;50.864;12.766;2023-01-26T07:37:55;98076.53;;;1.26;82.25
14242;BME280;7205;50.864;12.766;2023-01-26T07:40:23;98072.06;;;1.28;82.88
14242;BME280;7205;50.864;12.766;2023-01-26T07:42:51;98068.50;;;1.29;83.20
14242;BME280;7205;50.864;12.766;2023-01-26T07:45:39;98070.28;;;1.28;83.11
14242;BME280;7205;50.864;12.766;2023-01-26T07:48:06;98071.84;;;1.31;82.96
14242;BME280;7205;50.864;12.766;2023-01-26T07:50:34;98062.38;;;1.30;82.91
14242;BME280;7205;50.864;12.766;2023-01-26T07:53:01;98067.47;;;1.32;83.96
14242;BME280;7205;50.864;12.766;2023-01-26T07:55:27;98070.69;;;1.35;83.82
14242;BME280;7205;50.864;12.766;2023-01-26T07:57:56;98074.66;;;1.41;84.46
14242;BME280;7205;50.864;12.766;2023-01-26T08:00:23;98072.44;;;1.47;84.74
14242;BME280;7205;50.864;12.766;2023-01-26T08:02:50;98059.81;;;1.54;84.60
14242;BME280;7205;50.864;12.766;2023-01-26T08:05:17;98072.38;;;1.60;83.97
14242;BME280;7205;50.864;12.766;2023-01-26T08:07:44;98073.00;;;1.63;84.05
14242;BME280;7205;50.864;12.766;2023-01-26T08:10:11;98073.63;;;1.67;84.27
14242;BME280;7205;50.864;12.766;2023-01-26T08:12:39;98076.09;;;1.68;84.09
14242;BME280;7205;50.864;12.766;2023-01-26T08:15:08;98072.53;;;1.69;84.18
14242;BME280;7205;50.864;12.766;2023-01-26T08:17:36;98079.53;;;1.69;83.72
14242;BME280;7205;50.864;12.766;2023-01-26T08:20:03;98081.31;;;1.68;83.18
14242;BME280;7205;50.864;12.766;2023-01-26T08:22:30;98079.78;;;1.66;83.86
14242;BME280;7205;50.864;12.766;2023-01-26T08:24:58;98073.50;;;1.68;82.94
14242;BME280;7205;50.864;12.766;2023-01-26T08:27:24;98073.50;;;1.68;83.60
14242;BME280;7205;50.864;12.766;2023-01-26T08:29:51;98058.72;;;1.69;83.45
14242;BME280;7205;50.864;12.766;2023-01-26T08:32:19;98061.50;;;1.78;84.02
14242;BME280;7205;50.864;12.766;2023-01-26T08:34:46;98059.16;;;1.86;84.52
14242;BME280;7205;50.864;12.766;2023-01-26T08:37:15;98057.78;;;1.93;84.27
14242;BME280;7205;50.864;12.766;2023-01-26T08:39:41;98056.41;;;2.00;83.94
14242;BME280;7205;50.864;12.766;2023-01-26T08:42:08;98051.34;;;2.10;84.54
14242;BME280;7205;50.864;12.766;2023-01-26T08:44:35;98051.22;;;2.11;83.69
14242;BME280;7205;50.864;12.766;2023-01-26T08:47:02;98058.78;;;2.14;83.40
14242;BME280;7205;50.864;12.766;2023-01-26T08:49:30;98054.81;;;2.21;83.07
14242;BME280;7205;50.864;12.766;2023-01-26T08:51:57;98055.41;;;2.25;83.26
14242;BME280;7205;50.864;12.766;2023-01-26T08:54:24;98052.44;;;2.29;82.81
14242;BME280;7205;50.864;12.766;2023-01-26T08:56:51;98051.53;;;2.30;82.46
14242;BME280;7205;50.864;12.766;2023-01-26T08:59:19;98049.75;;;2.31;82.48
14242;BME280;7205;50.864;12.766;2023-01-26T09:01:47;98054.75;;;2.34;82.47
14242;BME280;7205;50.864;12.766;2023-01-26T09:04:14;98071.78;;;2.38;82.64
14242;BME280;7205;50.864;12.766;2023-01-26T09:06:42;98070.25;;;2.35;81.77
14242;BME280;7205;50.864;12.766;2023-01-26T09:09:09;98071.41;;;2.31;80.98
14242;BME280;7205;50.864;12.766;2023-01-26T09:11:37;98068.19;;;2.28;80.86
14242;BME280;7205;50.864;12.766;2023-01-26T09:14:04;98059.09;;;2.22;80.86
14242;BME280;7205;50.864;12.766;2023-01-26T09:16:31;98059.53;;;2.16;80.68
14242;BME280;7205;50.864;12.766;2023-01-26T09:18:58;98071.00;;;2.14;81.00
14242;BME280;7205;50.864;12.766;2023-01-26T09:21:25;98073.13;;;2.09;80.83
14242;BME280;7205;50.864;12.766;2023-01-26T09:23:54;98076.75;;;2.06;80.49
14242;BME280;7205;50.864;12.766;2023-01-26T09:26:21;98066.81;;;2.00;80.72
14242;BME280;7205;50.864;12.766;2023-01-26T09:28:49;98069.53;;;1.99;80.64
14242;BME280;7205;50.864;12.766;2023-01-26T09:31:16;98066.81;;;2.00;80.84
14242;BME280;7205;50.864;12.766;2023-01-26T09:33:43;98066.81;;;2.00;81.56
14242;BME280;7205;50.864;12.766;2023-01-26T09:36:10;98067.66;;;2.01;81.48
14242;BME280;7205;50.864;12.766;2023-01-26T09:38:37;98073.91;;;1.98;81.11
14242;BME280;7205;50.864;12.766;2023-01-26T09:41:13;98073.16;;;1.96;80.50
14242;BME280;7205;50.864;12.766;2023-01-26T09:43:47;98075.78;;;1.96;80.71
14242;BME280;7205;50.864;12.766;2023-01-26T09:46:20;98075.28;;;1.91;80.02
14242;BME280;7205;50.864;12.766;2023-01-26T09:48:54;98071.25;;;1.87;80.02
14242;BME280;7205;50.864;12.766;2023-01-26T09:51:28;98071.66;;;1.81;80.12
14242;BME280;7205;50.864;12.766;2023-01-26T09:54:01;98076.16;;;1.79;80.44
14242;BME280;7205;50.864;12.766;2023-01-26T09:56:32;98073.78;;;1.76;80.86
14242;BME280;7205;50.864;12.766;2023-01-26T09:59:03;98065.25;;;1.74;80.71
14242;BME280;7205;50.864;12.766;2023-01-26T10:01:37;98071.16;;;1.76;80.77
14242;BME280;7205;50.864;12.766;2023-01-26T10:04:13;98066.47;;;1.81;81.11
14242;BME280;7205;50.864;12.766;2023-01-26T10:06:45;98066.16;;;1.86;81.16
14242;BME280;7205;50.864;12.766;2023-01-26T10:09:22;98073.41;;;1.93;81.55
14242;BME280;7205;50.864;12.766;2023-01-26T10:11:53;98073.28;;;1.95;80.44
14242;BME280;7205;50.864;12.766;2023-01-26T10:14:30;98070.78;;;1.93;80.41
14242;BME280;7205;50.864;12.766;2023-01-26T10:16:59;98066.53;;;1.92;80.26
14242;BME280;7205;50.864;12.766;2023-01-26T10:19:33;98065.59;;;1.93;80.57
14242;BME280;7205;50.864;12.766;2023-01-26T10:22:05;98062.63;;;1.98;80.51
14242;BME280;7205;50.864;12.766;2023-01-26T10:24:34;98059.91;;;1.99;80.53
14242;BME280;7205;50.864;12.766;2023-01-26T10:27:09;98060.41;;;2.04;80.42
14242;BME280;7205;50.864;12.766;2023-01-26T10:29:38;98061.38;;;2.03;80.59
14242;BME280;7205;50.864;12.766;2023-01-26T10:32:08;98058.16;;;2.00;80.25
14242;BME280;7205;50.864;12.766;2023-01-26T10:34:37;98051.53;;;1.96;79.47
14242;BME280;7205;50.864;12.766;2023-01-26T10:37:17;98052.44;;;1.95;79.17
14242;BME280;7205;50.864;12.766;2023-01-26T10:40:03;98047.38;;;1.93;79.40
14242;BME280;7205;50.864;12.766;2023-01-26T10:42:34;98045.72;;;1.92;79.48
14242;BME280;7205;50.864;12.766;2023-01-26T10:45:04;98048.19;;;1.94;80.09
14242;BME280;7205;50.864;12.766;2023-01-26T10:47:31;98047.25;;;1.95;79.45
14242;BME280;7205;50.864;12.766;2023-01-26T10:50:14;98041.81;;;1.98;79.42
14242;BME280;7205;50.864;12.766;2023-01-26T10:52:56;98043.50;;;1.99;79.77
14242;BME280;7205;50.864;12.766;2023-01-26T10:55:23;98048.47;;;2.02;79.79
14242;BME280;7205;50.864;12.766;2023-01-26T10:57:52;98041.16;;;2.07;79.71
14242;BME280;7205;50.864;12.766;2023-01-26T11:00:22;98044.97;;;2.14;79.89
14242;BME280;7205;50.864;12.766;2023-01-26T11:02:51;98049.72;;;2.20;79.86
14242;BME280;7205;50.864;12.766;2023-01-26T11:05:21;98049.84;;;2.29;79.49
14242;BME280;7205;50.864;12.766;2023-01-26T11:07:49;98050.44;;;2.33;79.77
14242;BME280;7205;50.864;12.766;2023-01-26T11:10:27;98040.63;;;2.36;78.92
14242;BME280;7205;50.864;12.766;2023-01-26T11:13:16;98047.06;;;2.43;78.71
14242;BME280;7205;50.864;12.766;2023-01-26T11:15:45;98049.44;;;2.46;79.37
14242;BME280;7205;50.864;12.766;2023-01-26T11:18:25;98042.09;;;2.51;78.60
14242;BME280;7205;50.864;12.766;2023-01-26T11:20:59;98042.81;;;2.53;78.28
14242;BME280;7205;50.864;12.766;2023-01-26T11:23:41;98036.66;;;2.54;78.71
14242;BME280;7205;50.864;12.766;2023-01-26T11:26:44;98041.28;;;2.62;78.20
14242;BME280;7205;50.864;12.766;2023-01-26T11:29:32;98037.72;;;2.63;77.94
14242;BME280;7205;50.864;12.766;2023-01-26T11:32:13;98030.50;;;2.67;77.41
14242;BME280;7205;50.864;12.766;2023-01-26T11:34:49;98031.00;;;2.72;78.11
14242;BME280;7205;50.864;12.766;2023-01-26T11:37:44;98029.09;;;2.74;77.91
14242;BME280;7205;50.864;12.766;2023-01-26T11:40:20;98015.84;;;2.66;76.98
14242;BME280;7205;50.864;12.766;2023-01-26T11:43:01;98016.41;;;2.58;75.94
14242;BME280;7205;50.864;12.766;2023-01-26T11:45:56;98014.50;;;2.49;76.25
14242;BME280;7205;50.864;12.766;2023-01-26T11:48:31;98009.97;;;2.40;76.39
14242;BME280;7205;50.864;12.766;2023-01-26T11:51:06;98010.81;;;2.40;76.24
14242;BME280;7205;50.864;12.766;2023-01-26T11:53:55;98009.97;;;2.40;76.72
14242;BME280;7205;50.864;12.766;2023-01-26T11:56:34;98010.22;;;2.37;76.91
14242;BME280;7205;50.864;12.766;2023-01-26T11:59:11;98004.78;;;2.40;76.79
14242;BME280;7205;50.864;12.766;2023-01-26T12:01:45;98015.06;;;2.41;76.76
14242;BME280;7205;50.864;12.766;2023-01-26T12:04:18;97998.84;;;2.38;77.16
14242;BME280;7205;50.864;12.766;2023-01-26T12:06:47;97992.81;;;2.37;76.80
14242;BME280;7205;50.864;12.766;2023-01-26T12:09:20;97992.09;;;2.35;76.71
14242;BME280;7205;50.864;12.766;2023-01-26T12:11:54;97992.09;;;2.35;76.97
14242;BME280;7205;50.864;12.766;2023-01-26T12:14:27;97990.53;;;2.33;76.56
14242;BME280;7205;50.864;12.766;2023-01-26T12:17:08;97979.91;;;2.36;76.85
14242;BME280;7205;50.864;12.766;2023-01-26T12:19:46;97983.19;;;2.38;77.05
14242;BME280;7205;50.864;12.766;2023-01-26T12:22:20;97966.03;;;2.35;77.57
14242;BME280;7205;50.864;12.766;2023-01-26T12:24:51;97960.47;;;2.29;76.90
14242;BME280;7205;50.864;12.766;2023-01-26T12:27:24;97953.81;;;2.25;76.98
14242;BME280;7205;50.864;12.766;2023-01-26T12:30:00;97954.66;;;2.25;77.28
14242;BME280;7205;50.864;12.766;2023-01-26T12:32:32;97960.97;;;2.34;77.83
14242;BME280;7205;50.864;12.766;2023-01-26T12:34:59;97955.38;;;2.38;78.23
14242;BME280;7205;50.864;12.766;2023-01-26T12:37:45;97946.59;;;2.39;77.59
14242;BME280;7205;50.864;12.766;2023-01-26T12:40:26;97943.44;;;2.36;77.27
14242;BME280;7205;50.864;12.766;2023-01-26T12:43:05;97939.53;;;2.30;76.64
14242;BME280;7205;50.864;12.766;2023-01-26T12:45:39;97932.88;;;2.26;76.82
14242;BME280;7205;50.864;12.766;2023-01-26T12:48:12;97933.94;;;2.24;76.58
14242;BME280;7205;50.864;12.766;2023-01-26T12:50:43;97934.06;;;2.22;77.14
14242;BME280;7205;50.864;12.766;2023-01-26T12:53:15;97938.31;;;2.23;77.13
14242;BME280;7205;50.864;12.766;2023-01-26T12:55:46;97941.75;;;2.24;77.23
14242;BME280;7205;50.864;12.766;2023-01-26T12:58:18;97932.63;;;2.18;76.62
14242;BME280;7205;50.864;12.766;2023-01-26T13:00:57;97941.72;;;2.13;76.30
14242;BME280;7205;50.864;12.766;2023-01-26T13:03:31;97940.63;;;2.04;76.18
14242;BME280;7205;50.864;12.766;2023-01-26T13:06:00;97938.50;;;1.98;76.61
14242;BME280;7205;50.864;12.766;2023-01-26T13:08:48;97939.66;;;1.94;76.37
14242;BME280;7205;50.864;12.766;2023-01-26T13:11:39;97943.22;;;1.93;76.71
14242;BME280;7205;50.864;12.766;2023-01-26T13:14:29;97940.03;;;1.90;77.42
14242;BME280;7205;50.864;12.766;2023-01-26T13:16:57;97938.13;;;1.81;76.98
14242;BME280;7205;50.864;12.766;2023-01-26T13:19:52;97939.25;;;1.66;76.54
14242;BME280;7205;50.864;12.766;2023-01-26T13:22:37;97940.25;;;1.52;76.25
14242;BME280;7205;50.864;12.766;2023-01-26T13:25:13;97937.47;;;1.43;76.45
14242;BME280;7205;50.864;12.766;2023-01-26T13:27:45;97943.84;;;1.39;77.05
14242;BME280;7205;50.864;12.766;2023-01-26T13:30:43;97948.72;;;1.43;77.70
14242;BME280;7205;50.864;12.766;2023-01-26T13:33:22;97943.53;;;1.43;78.14
14242;BME280;7205;50.864;12.766;2023-01-26T13:35:52;97947.88;;;1.43;78.31